createdAt,value
2018-02-18T00:00:54.808Z,21.60
2018-02-18T00:03:22.369Z,19.65
2018-02-18T00:05:49.876Z,21.62
2018-02-18T00:08:18.088Z,19.95
2018-02-18T00:10:45.872Z,20.35
2018-02-18T00:13:13.321Z,21.92
2018-02-18T00:15:40.765Z,20.58
2018-02-18T00:18:08.412Z,21.30
2018-02-18T00:20:35.852Z,19.85
2018-02-18T00:23:07.091Z,20.15
2018-02-18T00:25:34.612Z,19.10
2018-02-18T00:28:02.045Z,18.92
2018-02-18T00:30:29.560Z,20.35
2018-02-18T00:32:57.004Z,20.75
2018-02-18T00:35:24.453Z,20.42
2018-02-18T00:37:57.044Z,20.40
2018-02-18T00:40:24.489Z,20.77
2018-02-18T00:42:52.349Z,21.60
2018-02-18T00:45:19.799Z,19.45
2018-02-18T00:47:47.240Z,21.00
2018-02-18T00:50:14.831Z,19.23
2018-02-18T00:52:42.268Z,20.45
2018-02-18T00:55:09.731Z,19.30
2018-02-18T00:57:59.078Z,20.37
2018-02-18T01:00:26.553Z,21.60
2018-02-18T01:02:54.029Z,18.73
2018-02-18T01:05:21.528Z,18.42
2018-02-18T01:07:49.741Z,18.77
2018-02-18T01:10:18.157Z,18.10
2018-02-18T01:12:45.600Z,17.00
2018-02-18T01:15:16.044Z,18.00
2018-02-18T01:17:43.564Z,16.42
2018-02-18T01:20:11.028Z,17.40
2018-02-18T01:22:38.468Z,16.95
2018-02-18T01:25:05.999Z,17.17
2018-02-18T01:27:34.204Z,17.20
2018-02-18T01:30:01.734Z,17.50
2018-02-18T01:32:29.169Z,17.33
2018-02-18T01:34:56.609Z,18.10
2018-02-18T01:37:24.151Z,18.17
2018-02-18T01:39:51.605Z,17.92
2018-02-18T01:42:23.901Z,17.60
2018-02-18T01:44:51.379Z,18.10
2018-02-18T01:47:18.831Z,17.60
2018-02-18T01:49:46.296Z,18.33
2018-02-18T01:52:14.845Z,18.98
2018-02-18T01:54:42.299Z,18.25
2018-02-18T01:57:09.729Z,19.15
2018-02-18T01:59:37.215Z,18.62
2018-02-18T02:02:04.659Z,17.58
2018-02-18T02:04:32.236Z,17.90
2018-02-18T02:06:59.712Z,18.70
2018-02-18T02:09:27.152Z,17.90
2018-02-18T02:11:54.594Z,17.90
2018-02-18T02:14:22.893Z,18.20
2018-02-18T02:16:50.355Z,16.15
2018-02-18T02:19:18.777Z,16.65
2018-02-18T02:21:46.986Z,18.00
2018-02-18T02:24:14.476Z,17.80
2018-02-18T02:26:41.920Z,17.33
2018-02-18T02:29:13.290Z,17.95
2018-02-18T02:31:40.729Z,17.83
2018-02-18T02:34:08.164Z,16.98
2018-02-18T02:36:45.376Z,18.00
2018-02-18T02:39:13.025Z,17.35
2018-02-18T02:41:40.470Z,18.40
2018-02-18T02:44:07.932Z,16.65
2018-02-18T02:46:35.375Z,17.42
2018-02-18T02:49:02.837Z,17.15
2018-02-18T02:51:30.279Z,18.12
2018-02-18T02:53:57.875Z,17.45
2018-02-18T02:56:25.324Z,17.48
2018-02-18T02:58:52.780Z,17.23
2018-02-18T03:01:20.264Z,17.90
2018-02-18T03:03:47.709Z,17.95
2018-02-18T03:06:15.186Z,17.98
2018-02-18T03:08:42.649Z,17.02
2018-02-18T03:11:10.088Z,18.17
2018-02-18T03:13:37.618Z,18.42
2018-02-18T03:16:05.077Z,17.65
2018-02-18T03:18:33.520Z,17.58
2018-02-18T03:21:01.740Z,17.10
2018-02-18T03:23:29.189Z,17.40
2018-02-18T03:25:56.806Z,17.60
2018-02-18T03:28:24.246Z,17.05
2018-02-18T03:30:51.681Z,16.80
2018-02-18T03:33:19.993Z,17.67
2018-02-18T03:35:47.432Z,17.95
2018-02-18T03:38:14.910Z,17.33
2018-02-18T03:40:42.348Z,18.50
2018-02-18T03:43:09.977Z,18.00
2018-02-18T03:45:37.430Z,19.20
2018-02-18T03:48:04.901Z,19.37
2018-02-18T03:50:32.359Z,19.12
2018-02-18T03:52:59.825Z,19.50
2018-02-18T03:55:27.265Z,18.10
2018-02-18T03:57:54.972Z,19.08
2018-02-18T04:00:22.416Z,18.65
2018-02-18T04:02:49.869Z,18.70
2018-02-18T04:05:17.348Z,18.35
2018-02-18T04:07:44.794Z,18.80
2018-02-18T04:10:12.259Z,18.73
2018-02-18T04:12:39.696Z,18.15
2018-02-18T04:15:07.152Z,18.00
2018-02-18T04:17:34.790Z,18.35
2018-02-18T04:20:02.234Z,20.00
2018-02-18T04:22:30.669Z,20.92
2018-02-18T04:24:58.133Z,19.77
2018-02-18T04:27:25.578Z,19.60
2018-02-18T04:29:53.096Z,19.40
2018-02-18T04:32:20.693Z,20.58
2018-02-18T04:34:48.131Z,21.05
2018-02-18T04:37:16.644Z,22.25
2018-02-18T04:39:44.083Z,20.23
2018-02-18T04:42:11.588Z,20.92
2018-02-18T04:44:39.025Z,22.35
2018-02-18T04:47:07.247Z,21.20
2018-02-18T04:49:34.828Z,20.73
2018-02-18T04:52:02.791Z,21.45
2018-02-18T04:54:30.235Z,21.35
2018-02-18T04:56:57.689Z,21.40
2018-02-18T04:59:26.173Z,21.60
2018-02-18T05:01:53.628Z,22.15
2018-02-18T05:04:21.068Z,21.37
2018-02-18T05:06:48.664Z,22.05
2018-02-18T05:09:16.101Z,20.50
2018-02-18T05:11:43.579Z,20.75
2018-02-18T05:14:11.029Z,22.20
2018-02-18T05:16:38.492Z,21.65
2018-02-18T05:19:05.991Z,21.25
2018-02-18T05:21:33.485Z,20.45
2018-02-18T05:24:00.952Z,21.40
2018-02-18T05:26:28.396Z,19.45
2018-02-18T05:28:55.877Z,21.87
2018-02-18T05:31:24.080Z,22.00
2018-02-18T05:33:51.517Z,21.67
2018-02-18T05:36:19.031Z,21.05
2018-02-18T05:38:56.320Z,21.37
2018-02-18T05:41:23.891Z,22.45
2018-02-18T05:43:51.342Z,22.17
2018-02-18T05:46:18.784Z,21.52
2018-02-18T05:48:47.012Z,22.30
2018-02-18T05:51:14.461Z,23.87
2018-02-18T05:53:41.949Z,23.70
2018-02-18T05:56:09.420Z,23.08
2018-02-18T05:58:36.889Z,23.30
2018-02-18T06:01:05.084Z,22.45
2018-02-18T06:03:32.549Z,21.15
2018-02-18T06:05:59.985Z,24.12
2018-02-18T06:08:28.277Z,22.02
2018-02-18T06:10:55.716Z,22.90
2018-02-18T06:13:23.208Z,23.80
2018-02-18T06:15:50.704Z,23.42
2018-02-18T06:18:18.096Z,22.85
2018-02-18T06:20:45.574Z,23.62
2018-02-18T06:23:14.005Z,23.70
2018-02-18T06:25:41.548Z,23.85
2018-02-18T06:28:08.992Z,24.80
2018-02-18T06:30:36.474Z,23.67
2018-02-18T06:33:03.920Z,25.02
2018-02-18T06:35:32.308Z,24.50
2018-02-18T06:37:59.773Z,23.75
2018-02-18T06:40:27.219Z,24.85
2018-02-18T06:42:55.172Z,24.20
2018-02-18T06:45:22.608Z,24.83
2018-02-18T06:47:51.964Z,25.60
2018-02-18T06:50:19.418Z,24.10
2018-02-18T06:52:52.949Z,25.92
2018-02-18T06:55:20.376Z,25.50
2018-02-18T06:57:49.225Z,71.37
2018-02-18T07:00:19.756Z,28.27
2018-02-18T07:02:47.204Z,24.45
2018-02-18T07:05:14.689Z,55.92
2018-02-18T07:07:42.645Z,26.40
2018-02-18T07:10:10.085Z,26.80
2018-02-18T07:12:59.322Z,26.12
2018-02-18T07:15:27.522Z,26.23
2018-02-18T07:17:55.045Z,27.20
2018-02-18T07:20:23.285Z,27.13
2018-02-18T07:22:50.749Z,26.95
2018-02-18T07:25:19.563Z,29.90
2018-02-18T07:27:47.842Z,25.05
2018-02-18T07:30:15.293Z,25.92
2018-02-18T07:32:46.208Z,26.12
2018-02-18T07:35:13.654Z,26.90
2018-02-18T07:37:41.108Z,59.97
2018-02-18T07:40:08.553Z,27.50
2018-02-18T07:42:36.048Z,34.15
2018-02-18T07:45:03.495Z,27.33
2018-02-18T07:47:36.057Z,25.70
2018-02-18T07:50:10.808Z,25.88
2018-02-18T07:52:49.323Z,25.12
2018-02-18T07:55:17.674Z,25.80
2018-02-18T07:57:45.156Z,25.98
2018-02-18T08:00:12.610Z,25.67
2018-02-18T08:02:40.197Z,36.75
2018-02-18T08:05:08.896Z,29.25
2018-02-18T08:07:37.328Z,46.72
2018-02-18T09:29:59.032Z,33.90
2018-02-18T09:33:02.689Z,26.37
2018-02-18T09:39:10.524Z,27.83
2018-02-18T09:45:14.542Z,27.85
2018-02-18T10:28:58.661Z,23.95
2018-02-18T10:31:26.100Z,23.98
2018-02-18T10:33:54.341Z,24.48
2018-02-18T10:36:21.782Z,24.42
2018-02-18T10:38:49.261Z,24.30
2018-02-18T10:41:19.658Z,23.35
2018-02-18T10:43:47.937Z,24.05
2018-02-18T10:46:16.124Z,25.17
2018-02-18T10:48:44.517Z,22.65
2018-02-18T10:51:12.375Z,22.48
2018-02-18T10:53:40.301Z,22.83
2018-02-18T10:56:07.781Z,21.92
2018-02-18T10:58:35.274Z,22.48
2018-02-18T11:01:19.013Z,23.12
2018-02-18T11:03:46.469Z,22.25
2018-02-18T11:06:14.064Z,21.62
2018-02-18T11:08:42.507Z,20.98
2018-02-18T11:11:09.944Z,21.17
2018-02-18T11:13:37.414Z,21.55
2018-02-18T11:16:04.926Z,21.83
2018-02-18T11:18:33.124Z,21.37
2018-02-18T11:21:00.636Z,21.58
2018-02-18T11:23:28.887Z,21.55
2018-02-18T11:25:56.321Z,21.10
2018-02-18T11:28:23.757Z,20.52
2018-02-18T11:30:53.163Z,20.40
2018-02-18T11:33:20.592Z,20.65
2018-02-18T11:35:48.789Z,20.77
2018-02-18T11:38:16.285Z,21.65
2018-02-18T11:40:43.740Z,21.75
2018-02-18T11:43:11.192Z,21.17
2018-02-18T11:45:38.633Z,18.73
2018-02-18T11:48:06.269Z,20.17
2018-02-18T11:50:34.469Z,19.50
2018-02-18T11:53:01.940Z,20.77
2018-02-18T11:55:45.285Z,21.50
2018-02-18T11:58:12.722Z,21.77
2018-02-18T12:00:40.221Z,22.00
2018-02-18T12:03:07.660Z,21.02
2018-02-18T12:05:35.173Z,19.17
2018-02-18T12:08:02.673Z,21.48
2018-02-18T12:10:34.199Z,21.48
2018-02-18T12:13:01.629Z,17.87
2018-02-18T12:15:29.119Z,16.80
2018-02-18T12:17:56.549Z,17.30
2018-02-18T12:20:23.996Z,17.15
2018-02-18T12:22:52.292Z,17.83
2018-02-18T12:25:19.728Z,18.95
2018-02-18T12:27:47.964Z,19.12
2018-02-18T12:30:17.376Z,20.60
2018-02-18T12:32:44.951Z,19.50
2018-02-18T12:35:12.410Z,19.75
2018-02-18T12:37:39.848Z,19.35
2018-02-18T12:40:07.333Z,18.87
2018-02-18T12:42:35.568Z,20.62
2018-02-18T12:45:03.032Z,18.90
2018-02-18T12:47:30.500Z,19.90
2018-02-18T12:49:57.955Z,19.65
2018-02-18T12:52:25.401Z,18.62
2018-02-18T12:54:55.053Z,18.98
2018-02-18T12:57:23.260Z,19.10
2018-02-18T12:59:50.685Z,19.02
2018-02-18T13:02:18.919Z,17.70
2018-02-18T13:04:46.376Z,18.87
2018-02-18T13:07:14.132Z,18.50
2018-02-18T13:09:43.012Z,20.52
2018-02-18T13:12:11.242Z,19.85
2018-02-18T13:14:38.700Z,18.60
2018-02-18T13:17:06.900Z,18.10
2018-02-18T13:19:34.387Z,18.50
2018-02-18T13:22:01.833Z,18.23
2018-02-18T13:24:29.268Z,18.40
2018-02-18T13:26:58.087Z,19.08
2018-02-18T13:29:25.545Z,18.83
2018-02-18T13:31:52.980Z,19.50
2018-02-18T13:34:22.996Z,19.30
2018-02-18T13:36:50.424Z,17.90
2018-02-18T13:39:18.641Z,18.17
2018-02-18T13:41:46.143Z,18.85
2018-02-18T13:44:25.572Z,16.30
2018-02-18T13:46:53.010Z,16.75
2018-02-18T13:49:20.472Z,16.23
2018-02-18T13:51:48.881Z,17.48
2018-02-18T13:54:17.646Z,16.70
2018-02-18T13:56:45.094Z,17.00
2018-02-18T13:59:13.499Z,19.05
2018-02-18T14:01:41.018Z,18.00
2018-02-18T14:04:08.505Z,18.27
2018-02-18T14:06:35.972Z,19.02
2018-02-18T14:09:03.460Z,19.80
2018-02-18T14:11:33.329Z,19.30
2018-02-18T14:14:00.772Z,19.60
2018-02-18T14:16:28.356Z,21.08
2018-02-18T14:18:56.758Z,20.60
2018-02-18T14:21:24.205Z,20.92
2018-02-18T14:23:51.632Z,20.23
2018-02-18T14:26:19.194Z,21.15
2018-02-18T14:28:46.633Z,20.35
2018-02-18T14:31:14.069Z,19.12
2018-02-18T14:33:41.758Z,19.55
2018-02-18T14:36:09.224Z,17.98
2018-02-18T14:38:36.709Z,17.80
2018-02-18T14:41:04.187Z,17.00
2018-02-18T14:43:45.410Z,17.50
2018-02-18T14:46:24.713Z,18.87
2018-02-18T14:49:04.921Z,18.25
2018-02-18T14:51:44.142Z,17.40
2018-02-18T14:54:23.433Z,18.62
2018-02-18T14:57:17.310Z,18.60
2018-02-18T14:59:45.545Z,20.35
2018-02-18T15:02:12.988Z,18.33
2018-02-18T15:04:40.492Z,17.83
2018-02-18T15:07:08.741Z,19.00
2018-02-18T15:09:36.209Z,19.00
2018-02-18T15:12:03.647Z,17.98
2018-02-18T15:14:31.112Z,19.33
2018-02-18T15:16:58.584Z,19.08
2018-02-18T15:19:26.021Z,18.55
2018-02-18T15:21:54.558Z,18.20
2018-02-18T15:24:21.996Z,19.42
2018-02-18T15:26:49.547Z,19.77
2018-02-18T15:29:17.061Z,19.87
2018-02-18T15:31:45.469Z,21.10
2018-02-18T15:34:12.944Z,20.37
2018-02-18T15:36:40.442Z,21.10
2018-02-18T15:39:11.844Z,21.73
2018-02-18T15:41:39.313Z,22.42
2018-02-18T15:44:06.748Z,32.22
2018-02-18T15:46:45.201Z,26.12
2018-02-18T15:49:13.421Z,20.77
2018-02-18T15:51:41.055Z,24.75
2018-02-18T15:54:08.484Z,24.50
2018-02-18T15:56:40.531Z,21.40
2018-02-18T15:59:07.991Z,19.70
2018-02-18T16:01:35.445Z,19.90
2018-02-18T16:04:02.885Z,18.23
2018-02-18T16:06:30.493Z,18.60
2018-02-18T16:08:58.927Z,19.12
2018-02-18T16:11:26.376Z,19.10
2018-02-18T16:13:53.837Z,18.35
2018-02-18T16:16:21.308Z,20.20
2018-02-18T16:18:48.752Z,49.65
2018-02-18T16:21:18.097Z,31.33
2018-02-18T16:23:45.566Z,21.55
2018-02-18T16:26:15.801Z,30.67
2018-02-18T16:28:43.238Z,81.75
2018-02-18T16:31:20.537Z,24.80
2018-02-18T16:33:48.745Z,25.60
2018-02-18T16:36:16.606Z,27.05
2018-02-18T16:38:44.044Z,54.88
2018-02-18T16:41:11.480Z,35.00
2018-02-18T16:43:39.741Z,23.75
2018-02-18T16:46:07.208Z,20.20
2018-02-18T16:48:34.646Z,22.10
2018-02-18T16:51:02.129Z,18.58
2018-02-18T16:53:29.548Z,16.80
2018-02-18T16:55:57.140Z,18.08
2018-02-18T16:58:25.345Z,18.30
2018-02-18T17:00:52.818Z,17.20
2018-02-18T17:03:20.308Z,17.85
2018-02-18T17:05:48.124Z,18.20
2018-02-18T17:08:15.561Z,19.23
2018-02-18T17:10:43.766Z,16.95
2018-02-18T17:13:12.273Z,17.92
2018-02-18T17:15:39.731Z,16.62
2018-02-18T17:18:07.175Z,21.20
2018-02-18T17:20:34.631Z,19.42
2018-02-18T17:23:02.080Z,19.30
2018-02-18T17:25:39.557Z,18.12
2018-02-18T17:28:07.000Z,17.35
2018-02-18T17:30:35.533Z,18.08
2018-02-18T17:33:02.980Z,18.55
2018-02-18T17:35:30.444Z,18.02
2018-02-18T17:37:57.893Z,20.27
2018-02-18T17:40:25.349Z,19.83
2018-02-18T17:42:52.788Z,19.60
2018-02-18T17:45:20.319Z,19.60
2018-02-18T17:47:47.756Z,19.27
2018-02-18T17:50:15.283Z,21.30
2018-02-18T17:52:42.719Z,19.05
2018-02-18T17:55:10.154Z,18.10
2018-02-18T17:57:41.324Z,19.40
2018-02-18T18:00:08.760Z,19.40
2018-02-18T18:02:37.112Z,19.67
2018-02-18T18:08:04.107Z,20.35
2018-02-18T18:10:32.328Z,20.12
2018-02-18T18:12:59.770Z,20.48
2018-02-18T18:15:27.233Z,19.65
2018-02-18T18:17:54.672Z,19.40
2018-02-18T18:20:22.192Z,20.73
2018-02-18T18:22:49.642Z,20.08
2018-02-18T18:25:23.493Z,19.10
2018-02-18T18:27:50.932Z,19.58
2018-02-18T18:30:19.129Z,19.60
2018-02-18T18:32:46.589Z,19.48
2018-02-18T18:35:14.120Z,19.98
2018-02-18T18:37:42.325Z,19.55
2018-02-18T18:40:09.757Z,20.58
2018-02-18T18:42:37.980Z,28.35
2018-02-18T18:45:05.451Z,34.97
2018-02-18T18:47:32.917Z,26.25
2018-02-18T18:50:00.357Z,23.87
2018-02-18T18:52:35.681Z,21.37
2018-02-18T18:55:03.126Z,21.48
2018-02-18T18:57:30.586Z,20.08
2018-02-18T18:59:59.024Z,21.17
2018-02-18T19:02:26.488Z,23.70
2018-02-18T19:04:54.703Z,21.05
2018-02-18T19:07:24.153Z,19.95
2018-02-18T19:09:51.672Z,31.98
2018-02-18T19:12:19.113Z,29.67
2018-02-18T19:14:46.588Z,39.83
2018-02-18T19:17:14.024Z,72.07
2018-02-18T19:19:41.500Z,57.90
2018-02-18T19:22:08.937Z,60.92
2018-02-18T19:24:36.412Z,78.35
2018-02-18T19:27:03.844Z,72.12
2018-02-18T19:29:31.387Z,43.35
2018-02-18T19:31:59.602Z,50.08
2018-02-18T19:34:27.041Z,43.45
2018-02-18T19:36:54.559Z,47.85
2018-02-18T19:39:22.954Z,37.42
2018-02-18T19:41:50.449Z,30.15
2018-02-18T19:44:17.889Z,28.70
2018-02-18T19:46:46.118Z,24.98
2018-02-18T19:49:13.552Z,24.15
2018-02-18T19:51:41.048Z,22.33
2018-02-18T19:54:08.485Z,24.23
2018-02-18T19:56:35.925Z,26.00
2018-02-18T19:59:03.485Z,28.62
2018-02-18T20:01:31.009Z,25.62
2018-02-18T20:03:58.400Z,27.58
2018-02-18T20:06:25.861Z,27.10
2018-02-18T20:08:54.993Z,27.55
2018-02-18T20:11:22.530Z,27.23
2018-02-18T20:13:49.974Z,28.40
2018-02-18T20:16:17.413Z,26.33
2018-02-18T20:18:44.902Z,25.55
2018-02-18T20:21:13.382Z,26.02
2018-02-18T20:23:40.853Z,24.27
2018-02-18T20:26:08.329Z,26.80
2018-02-18T20:28:35.846Z,29.00
2018-02-18T20:31:04.330Z,30.58
2018-02-18T20:33:31.784Z,30.88
2018-02-18T20:35:59.216Z,28.25
2018-02-18T20:38:26.684Z,29.23
2018-02-18T20:40:58.194Z,26.65
2018-02-18T20:43:25.668Z,26.10
2018-02-18T20:45:53.880Z,27.23
2018-02-18T20:48:21.434Z,25.85
2018-02-18T20:50:48.877Z,26.05
2018-02-18T20:53:23.101Z,25.17
2018-02-18T20:55:50.549Z,26.87
2018-02-18T20:58:18.772Z,26.65
2018-02-18T21:00:46.366Z,28.62
2018-02-18T21:03:14.584Z,25.15
2018-02-18T21:05:42.062Z,26.67
2018-02-18T21:08:09.497Z,25.85
2018-02-18T21:10:36.960Z,24.55
2018-02-18T21:13:04.425Z,26.83
2018-02-18T21:15:32.860Z,26.73
2018-02-18T21:18:01.396Z,29.10
2018-02-18T21:20:28.839Z,26.73
2018-02-18T21:22:56.317Z,27.60
2018-02-18T21:25:23.761Z,26.87
2018-02-18T21:27:51.196Z,25.88
2018-02-18T21:30:19.656Z,25.62
2018-02-18T21:32:47.871Z,26.92
2018-02-18T21:35:15.308Z,24.37
2018-02-18T21:37:42.904Z,24.55
2018-02-18T21:40:10.356Z,25.33
2018-02-18T21:42:37.928Z,23.95
2018-02-18T21:45:05.369Z,25.27
2018-02-18T21:47:32.797Z,24.17
2018-02-18T21:50:00.267Z,25.23
2018-02-18T21:52:28.518Z,24.95
2018-02-18T21:54:56.728Z,25.05
2018-02-18T21:57:24.393Z,25.10
2018-02-18T21:59:51.833Z,25.62
2018-02-18T22:02:19.313Z,26.25
2018-02-18T22:04:48.732Z,26.83
2018-02-18T22:07:16.200Z,27.52
2018-02-18T22:09:43.635Z,25.60
2018-02-18T22:12:11.228Z,27.42
2018-02-18T22:14:38.672Z,25.80
2018-02-18T22:17:06.157Z,27.60
2018-02-18T22:19:34.364Z,28.15
2018-02-18T22:22:01.825Z,28.85
2018-02-18T22:24:30.037Z,27.95
2018-02-18T22:26:57.568Z,26.98
2018-02-18T22:29:25.028Z,27.27
2018-02-18T22:31:53.443Z,24.40
2018-02-18T22:34:20.945Z,25.05
2018-02-18T22:36:48.384Z,28.20
2018-02-18T22:39:16.656Z,26.58
2018-02-18T22:41:45.843Z,28.23
2018-02-18T22:44:13.280Z,26.98
2018-02-18T22:46:40.748Z,27.10
2018-02-18T22:49:08.195Z,27.77
2018-02-18T22:51:35.840Z,26.85
2018-02-18T22:54:03.284Z,27.30
2018-02-18T22:56:30.721Z,27.20
2018-02-18T22:58:58.193Z,26.70
2018-02-18T23:01:25.686Z,25.77
2018-02-18T23:03:53.157Z,27.83
2018-02-18T23:06:20.633Z,26.12
2018-02-18T23:08:48.997Z,26.80
2018-02-18T23:11:16.448Z,27.17
2018-02-18T23:13:56.769Z,26.65
2018-02-18T23:16:26.640Z,27.33
2018-02-18T23:18:54.852Z,27.25
2018-02-18T23:21:22.315Z,27.02
2018-02-18T23:23:49.763Z,27.13
2018-02-18T23:26:17.261Z,27.37
2018-02-18T23:28:47.305Z,29.00
2018-02-18T23:31:15.556Z,29.85
2018-02-18T23:33:43.004Z,28.55
2018-02-18T23:36:10.445Z,28.25
2018-02-18T23:38:38.024Z,28.33
2018-02-18T23:41:05.458Z,27.17
2018-02-18T23:43:32.929Z,27.10
2018-02-18T23:46:00.370Z,27.48
2018-02-18T23:48:27.846Z,28.38
2018-02-18T23:50:55.288Z,27.13
2018-02-18T23:53:22.735Z,27.25
2018-02-18T23:55:50.268Z,26.98
2018-02-18T23:58:18.500Z,27.23
